createdAt,value
2019-02-25T00:00:21.348Z,7.80
2019-02-25T00:02:51.722Z,8.90
2019-02-25T00:05:20.068Z,7.83
2019-02-25T00:07:48.317Z,9.07
2019-02-25T00:10:16.605Z,8.33
2019-02-25T00:12:44.880Z,8.53
2019-02-25T00:15:13.213Z,8.90
2019-02-25T00:17:41.494Z,11.03
2019-02-25T00:20:10.909Z,9.23
2019-02-25T00:22:39.224Z,11.60
2019-02-25T00:25:10.238Z,13.20
2019-02-25T00:27:38.526Z,9.70
2019-02-25T00:30:12.100Z,8.97
2019-02-25T00:32:40.381Z,8.90
2019-02-25T00:35:08.893Z,8.50
2019-02-25T00:37:37.234Z,10.03
2019-02-25T00:40:13.353Z,8.87
2019-02-25T00:42:41.621Z,8.20
2019-02-25T00:45:14.556Z,9.00
2019-02-25T00:47:42.819Z,8.93
2019-02-25T00:50:16.479Z,9.60
2019-02-25T00:52:44.746Z,9.20
2019-02-25T00:55:13.351Z,9.03
2019-02-25T00:57:41.619Z,8.90
2019-02-25T01:00:21.596Z,9.03
2019-02-25T01:02:50.122Z,8.30
2019-02-25T01:05:19.551Z,8.30
2019-02-25T01:07:47.966Z,8.33
2019-02-25T01:10:17.160Z,7.70
2019-02-25T01:12:46.408Z,6.93
2019-02-25T01:15:15.837Z,7.47
2019-02-25T01:17:44.183Z,7.57
2019-02-25T01:20:19.769Z,7.20
2019-02-25T01:22:48.034Z,7.53
2019-02-25T01:25:19.242Z,8.20
2019-02-25T01:27:47.567Z,8.70
2019-02-25T01:30:18.177Z,6.70
2019-02-25T01:32:46.498Z,7.40
2019-02-25T01:35:15.040Z,7.87
2019-02-25T01:37:43.301Z,8.60
2019-02-25T01:40:12.920Z,7.17
2019-02-25T01:42:41.182Z,7.83
2019-02-25T01:45:11.845Z,7.93
2019-02-25T01:47:40.130Z,7.30
2019-02-25T01:50:10.554Z,7.30
2019-02-25T01:52:38.827Z,7.17
2019-02-25T01:55:12.201Z,7.77
2019-02-25T01:57:40.558Z,8.20
2019-02-25T02:00:15.043Z,8.43
2019-02-25T02:02:43.446Z,8.50
2019-02-25T02:05:11.781Z,8.93
2019-02-25T02:07:40.065Z,10.43
2019-02-25T02:10:11.136Z,8.87
2019-02-25T02:12:39.445Z,11.13
2019-02-25T02:15:10.968Z,8.50
2019-02-25T02:17:39.232Z,8.20
2019-02-25T02:20:10.349Z,8.90
2019-02-25T02:22:38.604Z,8.70
2019-02-25T02:25:08.711Z,9.07
2019-02-25T02:27:36.984Z,7.90
2019-02-25T02:30:08.450Z,7.93
2019-02-25T02:32:36.722Z,8.63
2019-02-25T02:35:06.327Z,8.60
2019-02-25T02:37:34.632Z,7.93
2019-02-25T02:40:02.953Z,8.43
2019-02-25T02:42:31.240Z,7.70
2019-02-25T02:44:59.581Z,8.73
2019-02-25T02:47:31.259Z,8.90
2019-02-25T02:50:01.570Z,8.43
2019-02-25T02:52:29.822Z,8.03
2019-02-25T02:54:58.178Z,8.40
2019-02-25T02:57:26.414Z,8.33
2019-02-25T02:59:54.686Z,9.00
2019-02-25T03:02:22.952Z,7.90
2019-02-25T03:04:51.229Z,8.97
2019-02-25T03:07:19.537Z,9.10
2019-02-25T03:09:47.805Z,8.83
2019-02-25T03:12:16.066Z,8.50
2019-02-25T03:14:44.332Z,8.97
2019-02-25T03:17:12.617Z,8.80
2019-02-25T03:19:40.868Z,9.20
2019-02-25T03:22:09.147Z,9.37
2019-02-25T03:24:37.416Z,9.10
2019-02-25T03:27:05.684Z,10.87
2019-02-25T03:29:33.955Z,10.00
2019-02-25T03:32:02.234Z,9.80
2019-02-25T03:34:30.494Z,10.20
2019-02-25T03:36:58.842Z,9.90
2019-02-25T03:39:27.102Z,9.60
2019-02-25T03:41:55.382Z,9.60
2019-02-25T03:44:23.664Z,10.30
2019-02-25T03:46:51.951Z,9.93
2019-02-25T03:49:20.227Z,10.33
2019-02-25T03:51:48.529Z,9.23
2019-02-25T03:54:16.800Z,9.67
2019-02-25T03:56:45.136Z,9.30
2019-02-25T03:59:13.506Z,9.43
2019-02-25T04:01:41.828Z,10.70
2019-02-25T04:04:10.165Z,10.27
2019-02-25T04:06:38.524Z,10.00
2019-02-25T04:09:06.858Z,9.80
2019-02-25T04:11:35.140Z,9.80
2019-02-25T04:14:03.467Z,10.23
2019-02-25T04:16:31.784Z,10.33
2019-02-25T04:19:00.073Z,10.80
2019-02-25T04:21:28.345Z,10.13
2019-02-25T04:23:56.641Z,9.90
2019-02-25T04:26:24.927Z,11.43
2019-02-25T04:28:53.220Z,11.33
2019-02-25T04:31:21.487Z,11.10
2019-02-25T04:33:49.765Z,9.90
2019-02-25T04:36:18.023Z,10.77
2019-02-25T04:38:46.308Z,10.63
2019-02-25T04:41:14.561Z,10.10
2019-02-25T04:43:42.871Z,10.10
2019-02-25T04:46:11.130Z,12.07
2019-02-25T04:48:39.394Z,9.83
2019-02-25T04:51:07.763Z,10.07
2019-02-25T04:53:36.035Z,10.20
2019-02-25T04:56:04.333Z,10.40
2019-02-25T04:58:32.601Z,10.03
2019-02-25T05:01:00.868Z,12.50
2019-02-25T05:03:29.127Z,10.00
2019-02-25T05:05:57.413Z,9.30
2019-02-25T05:08:25.679Z,11.57
2019-02-25T05:10:53.947Z,11.13
2019-02-25T05:13:22.231Z,10.87
2019-02-25T05:15:50.500Z,11.17
2019-02-25T05:18:18.793Z,12.00
2019-02-25T05:20:47.077Z,10.13
2019-02-25T05:23:15.358Z,11.87
2019-02-25T05:25:43.611Z,10.10
2019-02-25T05:28:11.912Z,10.70
2019-02-25T05:30:40.190Z,10.63
2019-02-25T05:33:08.472Z,11.17
2019-02-25T05:35:36.756Z,11.20
2019-02-25T05:38:05.036Z,10.50
2019-02-25T05:40:33.517Z,10.10
2019-02-25T05:43:01.779Z,11.40
2019-02-25T05:45:30.058Z,9.50
2019-02-25T05:47:58.322Z,10.37
2019-02-25T05:50:26.615Z,10.40
2019-02-25T05:52:54.960Z,11.13
2019-02-25T05:55:23.164Z,11.33
2019-02-25T05:57:51.454Z,11.00
2019-02-25T06:00:35.160Z,12.00
2019-02-25T06:03:03.498Z,10.57
2019-02-25T06:05:31.839Z,9.40
2019-02-25T06:08:00.108Z,12.10
2019-02-25T06:10:28.401Z,12.17
2019-02-25T06:12:56.671Z,10.00
2019-02-25T06:15:24.960Z,11.33
2019-02-25T06:17:53.225Z,15.40
2019-02-25T06:20:21.568Z,11.63
2019-02-25T06:22:49.861Z,11.40
2019-02-25T06:25:18.162Z,12.33
2019-02-25T06:27:46.415Z,11.60
2019-02-25T06:30:19.193Z,12.77
2019-02-25T06:32:47.457Z,11.67
2019-02-25T06:35:15.743Z,11.17
2019-02-25T06:37:44.020Z,10.90
2019-02-25T06:40:17.217Z,12.10
2019-02-25T06:42:45.577Z,12.37
2019-02-25T06:45:22.730Z,11.90
2019-02-25T06:47:51.138Z,10.57
2019-02-25T06:50:19.461Z,11.83
2019-02-25T06:52:47.735Z,10.90
2019-02-25T06:55:16.664Z,11.17
2019-02-25T06:57:44.925Z,10.97
2019-02-25T07:00:18.075Z,11.87
2019-02-25T07:02:46.444Z,13.00
2019-02-25T07:05:32.699Z,11.20
2019-02-25T07:08:05.015Z,12.30
2019-02-25T07:10:40.371Z,12.30
2019-02-25T07:13:16.262Z,12.43
2019-02-25T07:15:58.070Z,19.13
2019-02-25T07:18:37.242Z,12.37
2019-02-25T07:21:12.940Z,11.97
2019-02-25T07:23:48.504Z,13.17
2019-02-25T07:26:24.107Z,12.00
2019-02-25T07:29:10.215Z,21.10
2019-02-25T07:31:42.811Z,11.77
2019-02-25T07:34:12.757Z,12.53
2019-02-25T07:36:48.374Z,11.43
2019-02-25T07:39:34.695Z,14.23
2019-02-25T07:42:10.393Z,14.33
2019-02-25T07:44:52.402Z,11.00
2019-02-25T07:47:27.964Z,14.50
2019-02-25T07:50:15.662Z,11.10
2019-02-25T07:53:01.942Z,12.10
2019-02-25T07:55:49.810Z,16.77
2019-02-25T07:58:28.553Z,12.10
2019-02-25T08:00:58.490Z,15.83
2019-02-25T08:03:28.436Z,11.50
2019-02-25T08:05:58.390Z,10.93
2019-02-25T08:08:37.230Z,10.70
2019-02-25T08:11:22.083Z,12.57
2019-02-25T08:13:52.020Z,10.77
2019-02-25T08:16:24.733Z,9.80
2019-02-25T08:19:09.760Z,10.90
2019-02-25T08:21:42.685Z,10.10
2019-02-25T08:24:15.772Z,10.60
2019-02-25T08:26:54.986Z,10.00
2019-02-25T08:29:39.980Z,11.93
2019-02-25T08:32:09.888Z,8.73
2019-02-25T08:34:55.957Z,9.93
2019-02-25T08:37:31.920Z,10.03
2019-02-25T08:40:14.013Z,8.60
2019-02-25T08:42:42.914Z,8.53
2019-02-25T08:45:18.631Z,9.60
2019-02-25T08:47:51.276Z,10.33
2019-02-25T08:50:19.537Z,9.57
2019-02-25T08:52:48.033Z,8.90
2019-02-25T08:55:16.315Z,12.90
2019-02-25T08:57:44.583Z,11.37
2019-02-25T09:00:14.704Z,9.97
2019-02-25T09:02:43.161Z,8.03
2019-02-25T09:05:17.217Z,9.50
2019-02-25T09:07:45.505Z,7.97
2019-02-25T09:10:14.859Z,9.87
2019-02-25T09:12:43.123Z,7.73
2019-02-25T09:15:15.581Z,7.77
2019-02-25T09:17:43.181Z,9.53
2019-02-25T09:20:12.203Z,8.07
2019-02-25T09:22:40.461Z,8.67
2019-02-25T09:25:11.618Z,8.30
2019-02-25T09:27:39.894Z,8.10
2019-02-25T09:30:14.675Z,7.60
2019-02-25T09:32:43.824Z,9.50
2019-02-25T09:35:12.629Z,8.70
2019-02-25T09:37:40.973Z,8.13
2019-02-25T09:40:12.112Z,9.47
2019-02-25T09:42:41.215Z,7.70
2019-02-25T09:45:12.559Z,10.67
2019-02-25T09:47:40.830Z,6.60
2019-02-25T09:50:14.246Z,7.03
2019-02-25T09:52:42.474Z,7.33
2019-02-25T09:55:12.472Z,6.70
2019-02-25T09:57:40.799Z,7.13
2019-02-25T10:00:17.547Z,7.33
2019-02-25T10:02:45.928Z,6.93
2019-02-25T10:05:14.378Z,6.77
2019-02-25T10:07:42.737Z,6.70
2019-02-25T10:10:18.077Z,7.40
2019-02-25T10:12:46.340Z,7.00
2019-02-25T10:15:24.177Z,6.70
2019-02-25T10:17:52.444Z,6.50
2019-02-25T10:20:20.700Z,6.13
2019-02-25T10:22:48.991Z,6.13
2019-02-25T10:25:17.265Z,6.67
2019-02-25T10:27:45.518Z,6.53
2019-02-25T10:30:15.513Z,6.13
2019-02-25T10:32:43.806Z,6.03
2019-02-25T10:35:17.086Z,6.53
2019-02-25T10:37:45.375Z,6.70
2019-02-25T10:40:15.518Z,5.63
2019-02-25T10:42:44.689Z,6.20
2019-02-25T10:45:17.794Z,5.97
2019-02-25T10:47:46.806Z,8.23
2019-02-25T10:50:16.211Z,6.53
2019-02-25T10:52:44.897Z,6.63
2019-02-25T10:55:49.308Z,6.20
2019-02-25T10:58:18.255Z,6.37
2019-02-25T11:00:46.550Z,7.20
2019-02-25T11:03:15.814Z,9.63
2019-02-25T11:05:45.772Z,6.50
2019-02-25T11:08:15.709Z,6.00
2019-02-25T11:11:02.002Z,6.67
2019-02-25T11:13:31.858Z,5.90
2019-02-25T11:16:00.393Z,6.10
2019-02-25T11:18:28.854Z,6.03
2019-02-25T11:20:58.964Z,6.10
2019-02-25T11:23:29.608Z,5.73
2019-02-25T11:25:59.927Z,6.70
2019-02-25T11:28:27.942Z,6.23
2019-02-25T11:30:56.286Z,6.20
2019-02-25T11:33:25.172Z,7.43
2019-02-25T11:35:54.569Z,6.40
2019-02-25T11:38:23.832Z,5.73
2019-02-25T11:40:52.865Z,6.90
2019-02-25T11:43:21.607Z,7.43
2019-02-25T11:45:50.014Z,7.53
2019-02-25T11:48:18.283Z,6.07
2019-02-25T11:50:46.619Z,6.70
2019-02-25T11:53:14.905Z,6.77
2019-02-25T11:55:43.528Z,6.93
2019-02-25T11:58:11.876Z,6.10
2019-02-25T12:00:40.168Z,5.70
2019-02-25T12:03:08.442Z,7.47
2019-02-25T12:05:36.759Z,7.67
2019-02-25T12:08:05.033Z,5.80
2019-02-25T12:10:33.314Z,6.23
2019-02-25T12:13:01.591Z,5.33
2019-02-25T12:15:30.028Z,6.10
2019-02-25T12:17:58.394Z,5.23
2019-02-25T12:20:26.672Z,5.70
2019-02-25T12:22:54.960Z,4.97
2019-02-25T12:25:24.268Z,7.13
2019-02-25T12:27:53.411Z,5.90
2019-02-25T12:30:23.709Z,5.70
2019-02-25T12:32:51.997Z,5.97
2019-02-25T12:35:20.260Z,5.87
2019-02-25T12:37:48.717Z,5.80
2019-02-25T12:40:17.348Z,5.77
2019-02-25T12:42:45.674Z,5.43
2019-02-25T12:45:15.029Z,6.67
2019-02-25T12:47:43.365Z,5.47
2019-02-25T12:50:16.069Z,5.03
2019-02-25T12:52:44.415Z,5.93
2019-02-25T12:55:19.803Z,5.87
2019-02-25T12:57:48.139Z,5.40
2019-02-25T13:00:17.469Z,5.10
2019-02-25T13:02:45.755Z,5.90
2019-02-25T13:05:16.276Z,5.63
2019-02-25T13:07:44.628Z,5.20
2019-02-25T13:10:15.079Z,5.30
2019-02-25T13:12:43.350Z,5.60
2019-02-25T13:15:18.813Z,6.47
2019-02-25T13:17:47.092Z,5.50
2019-02-25T13:20:16.048Z,5.40
2019-02-25T13:22:44.391Z,4.57
2019-02-25T13:25:21.827Z,6.40
2019-02-25T13:27:51.834Z,5.30
2019-02-25T13:30:20.225Z,5.40
2019-02-25T13:32:48.503Z,4.77
2019-02-25T13:35:16.795Z,4.70
2019-02-25T13:37:45.122Z,4.37
2019-02-25T13:40:17.269Z,4.70
2019-02-25T13:42:45.696Z,5.70
2019-02-25T13:45:18.618Z,4.43
2019-02-25T13:47:47.068Z,4.73
2019-02-25T13:50:16.589Z,5.07
2019-02-25T13:52:48.323Z,3.80
2019-02-25T13:55:19.818Z,4.40
2019-02-25T13:57:48.082Z,4.30
2019-02-25T14:00:18.285Z,4.83
2019-02-25T14:02:46.681Z,3.90
2019-02-25T14:05:15.163Z,4.70
2019-02-25T14:07:43.513Z,5.40
2019-02-25T14:10:13.601Z,4.20
2019-02-25T14:12:41.957Z,3.90
2019-02-25T14:15:12.663Z,4.57
2019-02-25T14:17:40.934Z,4.00
2019-02-25T14:20:18.316Z,5.03
2019-02-25T14:22:46.670Z,4.33
2019-02-25T14:25:19.794Z,4.13
2019-02-25T14:27:48.241Z,4.73
2019-02-25T14:30:19.564Z,4.20
2019-02-25T14:32:47.936Z,5.67
2019-02-25T14:35:17.170Z,5.20
2019-02-25T14:37:45.453Z,4.40
2019-02-25T14:40:19.058Z,4.47
2019-02-25T14:42:51.305Z,4.30
2019-02-25T14:45:21.584Z,4.30
2019-02-25T14:47:49.753Z,4.33
2019-02-25T14:50:20.802Z,3.87
2019-02-25T14:52:49.635Z,4.70
2019-02-25T14:55:18.134Z,4.40
2019-02-25T14:57:46.461Z,4.63
2019-02-25T15:00:23.409Z,4.40
2019-02-25T15:02:52.530Z,4.43
2019-02-25T15:05:21.710Z,6.23
2019-02-25T15:07:51.155Z,4.50
2019-02-25T15:10:20.535Z,4.13
2019-02-25T15:12:48.858Z,3.80
2019-02-25T15:15:20.280Z,5.80
2019-02-25T15:17:50.326Z,7.23
2019-02-25T15:20:20.821Z,6.83
2019-02-25T15:22:49.485Z,7.90
2019-02-25T15:25:18.688Z,4.73
2019-02-25T15:27:47.612Z,6.47
2019-02-25T15:30:20.283Z,5.00
2019-02-25T15:32:55.753Z,4.10
2019-02-25T15:35:18.615Z,4.50
2019-02-25T15:37:48.480Z,4.10
2019-02-25T15:40:18.598Z,5.60
2019-02-25T15:42:47.514Z,5.80
2019-02-25T15:45:18.986Z,8.87
2019-02-25T15:47:47.338Z,4.13
2019-02-25T15:50:18.612Z,4.87
2019-02-25T15:52:46.944Z,3.90
2019-02-25T15:55:17.339Z,4.90
2019-02-25T15:57:47.346Z,3.77
2019-02-25T16:00:21.279Z,4.03
2019-02-25T16:02:53.116Z,4.53
2019-02-25T16:05:23.375Z,3.97
2019-02-25T16:07:52.268Z,4.40
2019-02-25T16:10:22.250Z,4.73
2019-02-25T16:12:51.231Z,5.90
2019-02-25T16:15:20.888Z,5.00
2019-02-25T16:17:51.656Z,5.00
2019-02-25T16:20:21.420Z,4.70
2019-02-25T16:22:49.788Z,6.00
2019-02-25T16:25:20.679Z,6.33
2019-02-25T16:27:50.479Z,6.43
2019-02-25T16:30:20.906Z,8.47
2019-02-25T16:32:48.995Z,5.10
2019-02-25T16:35:17.342Z,4.40
2019-02-25T16:37:45.646Z,4.80
2019-02-25T16:40:15.772Z,6.50
2019-02-25T16:42:44.390Z,4.20
2019-02-25T16:45:17.466Z,4.30
2019-02-25T16:47:45.757Z,4.43
2019-02-25T16:50:16.549Z,5.83
2019-02-25T16:52:47.275Z,5.33
2019-02-25T16:55:22.675Z,5.30
2019-02-25T16:57:51.311Z,10.93
2019-02-25T17:00:25.242Z,5.07
2019-02-25T17:02:54.717Z,5.53
2019-02-25T17:05:23.283Z,13.10
2019-02-25T17:07:51.853Z,8.03
2019-02-25T17:10:23.998Z,7.17
2019-02-25T17:12:52.647Z,6.93
2019-02-25T17:15:22.077Z,5.90
2019-02-25T17:17:52.473Z,8.43
2019-02-25T17:20:21.772Z,6.20
2019-02-25T17:22:50.109Z,7.20
2019-02-25T17:25:18.405Z,7.47
2019-02-25T17:27:46.752Z,8.90
2019-02-25T17:30:24.078Z,9.10
2019-02-25T17:32:52.484Z,7.93
2019-02-25T17:35:23.584Z,8.33
2019-02-25T17:37:53.117Z,9.30
2019-02-25T17:40:21.487Z,10.40
2019-02-25T17:42:51.627Z,8.50
2019-02-25T17:45:29.349Z,11.03
2019-02-25T17:47:58.261Z,9.37
2019-02-25T17:50:27.310Z,9.03
2019-02-25T17:52:55.560Z,8.57
2019-02-25T17:55:27.296Z,9.87
2019-02-25T17:57:56.882Z,10.63
2019-02-25T18:00:37.411Z,8.00
2019-02-25T18:03:06.879Z,10.63
2019-02-25T18:05:38.078Z,13.10
2019-02-25T18:08:08.081Z,9.83
2019-02-25T18:10:36.880Z,9.50
2019-02-25T18:13:08.195Z,8.57
2019-02-25T18:15:35.507Z,13.60
2019-02-25T18:18:07.018Z,8.83
2019-02-25T18:20:33.944Z,8.20
2019-02-25T18:23:04.982Z,8.20
2019-02-25T18:25:32.544Z,7.57
2019-02-25T18:28:00.972Z,7.60
2019-02-25T18:30:32.399Z,7.50
2019-02-25T18:33:03.431Z,7.33
2019-02-25T18:35:31.790Z,7.70
2019-02-25T18:38:00.887Z,8.70
2019-02-25T18:40:30.062Z,17.87
2019-02-25T18:43:00.280Z,9.03
2019-02-25T18:45:28.413Z,8.83
2019-02-25T18:47:56.716Z,8.03
2019-02-25T18:50:26.832Z,7.23
2019-02-25T18:52:57.222Z,6.53
2019-02-25T18:55:29.224Z,9.27
2019-02-25T18:57:57.612Z,7.43
2019-02-25T19:00:30.052Z,8.27
2019-02-25T19:03:00.268Z,7.73
2019-02-25T19:05:31.265Z,11.50
2019-02-25T19:07:59.515Z,8.23
2019-02-25T19:10:27.963Z,13.80
2019-02-25T19:12:58.229Z,9.70
2019-02-25T19:15:26.319Z,11.40
2019-02-25T19:17:54.652Z,9.17
2019-02-25T19:20:23.194Z,7.73
2019-02-25T19:22:51.532Z,8.20
2019-02-25T19:25:22.573Z,6.43
2019-02-25T19:27:52.092Z,7.63
2019-02-25T19:30:22.255Z,7.87
2019-02-25T19:32:50.696Z,6.07
2019-02-25T19:35:19.150Z,8.57
2019-02-25T19:37:47.475Z,6.37
2019-02-25T19:40:22.546Z,11.17
2019-02-25T19:42:51.574Z,6.67
2019-02-25T19:45:20.577Z,7.03
2019-02-25T19:47:48.934Z,7.20
2019-02-25T19:50:19.528Z,6.83
2019-02-25T19:52:47.984Z,7.17
2019-02-25T19:55:18.367Z,8.90
2019-02-25T19:57:46.362Z,8.00
2019-02-25T20:00:22.015Z,7.03
2019-02-25T20:02:48.899Z,8.10
2019-02-25T20:05:19.392Z,7.13
2019-02-25T20:07:47.747Z,8.03
2019-02-25T20:10:16.152Z,8.77
2019-02-25T20:12:44.476Z,10.40
2019-02-25T20:15:18.162Z,7.57
2019-02-25T20:17:46.752Z,8.30
2019-02-25T20:20:16.002Z,6.87
2019-02-25T20:22:44.293Z,7.10
2019-02-25T20:25:17.244Z,8.03
2019-02-25T20:27:46.557Z,8.57
2019-02-25T20:30:19.188Z,7.37
2019-02-25T20:32:47.541Z,8.37
2019-02-25T20:35:22.003Z,7.60
2019-02-25T20:37:52.894Z,7.87
2019-02-25T20:40:21.790Z,7.60
2019-02-25T20:42:51.302Z,8.10
2019-02-25T20:45:32.800Z,9.07
2019-02-25T20:48:01.950Z,9.70
2019-02-25T20:50:30.600Z,9.83
2019-02-25T20:53:03.086Z,7.37
2019-02-25T20:55:29.865Z,9.07
2019-02-25T20:57:59.205Z,11.50
2019-02-25T21:00:27.556Z,7.77
2019-02-25T21:02:55.876Z,9.20
2019-02-25T21:05:26.809Z,9.63
2019-02-25T21:07:55.486Z,8.50
2019-02-25T21:10:24.996Z,9.00
2019-02-25T21:12:54.698Z,8.40
2019-02-25T21:15:24.215Z,11.27
2019-02-25T21:17:54.396Z,9.20
2019-02-25T21:20:23.738Z,10.73
2019-02-25T21:22:54.822Z,10.60
2019-02-25T21:25:26.534Z,9.47
2019-02-25T21:27:55.213Z,9.67
2019-02-25T21:30:22.794Z,11.20
2019-02-25T21:32:51.970Z,9.70
2019-02-25T21:35:23.444Z,8.70
2019-02-25T21:37:52.858Z,7.70
2019-02-25T21:40:25.051Z,7.77
2019-02-25T21:42:53.932Z,9.23
2019-02-25T21:45:25.157Z,8.23
2019-02-25T21:47:54.605Z,7.63
2019-02-25T21:50:26.287Z,8.40
2019-02-25T21:52:53.004Z,7.40
2019-02-25T21:55:23.175Z,11.00
2019-02-25T21:57:53.098Z,9.00
2019-02-25T22:00:27.001Z,7.27
2019-02-25T22:02:55.751Z,8.00
2019-02-25T22:05:24.033Z,8.40
2019-02-25T22:07:54.283Z,8.43
2019-02-25T22:10:22.326Z,7.60
2019-02-25T22:12:50.609Z,7.30
2019-02-25T22:15:22.102Z,10.00
2019-02-25T22:17:53.032Z,11.23
2019-02-25T22:20:22.603Z,8.00
2019-02-25T22:22:54.613Z,18.93
2019-02-25T22:25:21.435Z,10.30
2019-02-25T22:27:49.706Z,9.60
2019-02-25T22:30:18.393Z,7.40
2019-02-25T22:32:46.858Z,9.13
2019-02-25T22:35:15.366Z,8.83
2019-02-25T22:37:46.765Z,7.97
2019-02-25T22:40:17.215Z,8.60
2019-02-25T22:42:47.886Z,8.00
2019-02-25T22:45:18.980Z,9.40
2019-02-25T22:47:47.434Z,8.23
2019-02-25T22:50:15.798Z,8.20
2019-02-25T22:52:44.163Z,8.40
2019-02-25T22:55:15.398Z,7.50
2019-02-25T22:57:45.750Z,8.63
2019-02-25T23:00:31.002Z,8.30
2019-02-25T23:02:59.345Z,9.10
2019-02-25T23:05:27.783Z,8.77
2019-02-25T23:07:56.083Z,10.30
2019-02-25T23:10:24.420Z,8.83
2019-02-25T23:12:55.451Z,8.47
2019-02-25T23:15:26.953Z,8.93
2019-02-25T23:17:53.784Z,7.23
2019-02-25T23:20:23.063Z,7.50
2019-02-25T23:22:53.032Z,8.73
2019-02-25T23:25:22.048Z,7.70
2019-02-25T23:27:53.388Z,9.93
2019-02-25T23:30:23.434Z,8.70
2019-02-25T23:32:52.388Z,10.10
2019-02-25T23:35:23.076Z,8.53
2019-02-25T23:37:53.398Z,8.70
2019-02-25T23:40:21.412Z,8.17
2019-02-25T23:42:49.688Z,7.93
2019-02-25T23:45:20.465Z,7.60
2019-02-25T23:47:48.144Z,11.87
2019-02-25T23:50:16.432Z,11.07
2019-02-25T23:52:44.746Z,11.30
2019-02-25T23:55:16.556Z,12.10
2019-02-25T23:57:43.474Z,12.83
